INFORMACIÓN METAR y TAF
METAR FOR LEAB
ADDS - METARS form results

(1501 UTC 18 February 2019)
Data provider http://aviationweather.gov/metar/data/
 
Forecast for: LEAB (ALBACETE (CIV/MI, ES)
Text: TAF LEAB 181400Z 1815/1824 14010KT CAVOK
Forecast period: 1500 UTC 18 February 2019 to 0000 UTC 19 February 2019
Forecast type: FROM: standard forecast or significant change
Winds: from the SE (140 degrees) at 12 MPH (10 knots; 5.1 m/s)
Visibility: 6 or more miles 10+ km)
Ceiling: unknown
Clouds: missing
Weather: NSW  (no significant weather)

 MAPA DE AEROPUERTO

 INFORMACIÓN DE PISTA
Pista 09 Longitud 8858 ft Ancho 197 ft
Elevación 2281 ft Umbral desplazado 0 ft Rumbo de pista 87
Pista 27 Longitud 8858 ft Ancho 197 ft
Elevación 2302 ft Umbral desplazado 0 ft Rumbo de pista 267

 FRECUANCIAS DEL AEROPUERTO
Tipo APP Nombre APP Frecuencia 118.725 MHZ
Tipo GND Nombre GND Frecuencia 121.8 MHZ
Tipo TWR Nombre TWR Frecuencia 122.1 MHZ

 RADIO AYUDAS DEL AEROPUERTO
Tipo NDB Nombre Albacete Frecuencia 321 KHZ
Tipo TACAN Nombre Albacete Frecuencia 108000 KHZ
Tipo VOR-DME Nombre Albacete Frecuencia 115800 KHZ




Powered by Virtual Airlines Manager